createdAt,value
2018-11-13T00:00:13.190Z,11.10
2018-11-13T00:02:41.625Z,11.20
2018-11-13T00:05:09.954Z,11.10
2018-11-13T00:07:38.335Z,11.10
2018-11-13T00:10:07.889Z,11.20
2018-11-13T00:12:36.335Z,11.20
2018-11-13T00:15:04.700Z,11.20
2018-11-13T00:17:33.047Z,11.20
2018-11-13T00:20:01.765Z,11.20
2018-11-13T00:22:30.358Z,11.20
2018-11-13T00:24:58.692Z,11.20
2018-11-13T00:27:27.079Z,11.20
2018-11-13T00:29:55.391Z,11.20
2018-11-13T00:32:23.750Z,11.20
2018-11-13T00:34:52.084Z,11.20
2018-11-13T00:37:20.454Z,11.20
2018-11-13T00:39:48.857Z,11.20
2018-11-13T00:42:17.207Z,11.20
2018-11-13T00:44:45.566Z,11.20
2018-11-13T00:47:13.872Z,11.20
2018-11-13T00:49:42.242Z,11.20
2018-11-13T00:52:10.579Z,11.20
2018-11-13T00:54:38.927Z,11.20
2018-11-13T00:57:07.730Z,11.10
2018-11-13T00:59:36.131Z,11.10
2018-11-13T01:02:04.667Z,11.10
2018-11-13T01:04:33.004Z,11.10
2018-11-13T01:07:01.330Z,11.10
2018-11-13T01:09:29.770Z,11.10
2018-11-13T01:11:58.461Z,11.10
2018-11-13T01:14:26.470Z,11.00
2018-11-13T01:16:54.808Z,11.00
2018-11-13T01:19:23.154Z,11.00
2018-11-13T01:21:51.652Z,11.00
2018-11-13T01:24:19.998Z,11.00
2018-11-13T01:26:48.310Z,11.00
2018-11-13T01:29:16.659Z,11.00
2018-11-13T01:31:44.978Z,11.00
2018-11-13T01:34:13.331Z,11.00
2018-11-13T01:36:41.663Z,11.00
2018-11-13T01:39:10.956Z,11.00
2018-11-13T01:41:39.533Z,11.00
2018-11-13T01:44:08.036Z,11.00
2018-11-13T01:46:36.486Z,11.00
2018-11-13T01:49:04.936Z,11.00
2018-11-13T01:51:33.260Z,11.00
2018-11-13T01:54:01.666Z,11.00
2018-11-13T01:56:29.934Z,11.00
2018-11-13T01:58:58.261Z,11.00
2018-11-13T02:01:26.570Z,11.00
2018-11-13T02:03:54.905Z,11.00
2018-11-13T02:06:23.219Z,11.00
2018-11-13T02:08:51.543Z,11.00
2018-11-13T02:11:19.875Z,11.00
2018-11-13T02:13:48.191Z,11.00
2018-11-13T02:16:16.550Z,11.00
2018-11-13T02:18:45.038Z,10.90
2018-11-13T02:21:13.361Z,11.00
2018-11-13T02:23:41.882Z,10.90
2018-11-13T02:26:10.206Z,11.00
2018-11-13T02:28:38.525Z,10.90
2018-11-13T02:31:06.858Z,10.90
2018-11-13T02:33:35.181Z,10.90
2018-11-13T02:36:03.509Z,10.90
2018-11-13T02:38:31.831Z,10.90
2018-11-13T02:41:00.184Z,10.90
2018-11-13T02:43:28.526Z,10.90
2018-11-13T02:45:56.867Z,10.90
2018-11-13T02:48:25.192Z,10.90
2018-11-13T02:50:53.526Z,10.90
2018-11-13T02:53:21.845Z,10.90
2018-11-13T02:55:50.197Z,10.90
2018-11-13T02:58:18.510Z,10.90
2018-11-13T03:00:46.847Z,10.90
2018-11-13T03:03:15.150Z,10.90
2018-11-13T03:05:43.515Z,10.90
2018-11-13T03:08:11.823Z,10.90
2018-11-13T03:10:40.177Z,10.90
2018-11-13T03:13:08.500Z,10.80
2018-11-13T03:15:36.836Z,10.80
2018-11-13T03:18:05.410Z,10.70
2018-11-13T03:20:33.747Z,10.70
2018-11-13T03:23:02.072Z,10.70
2018-11-13T03:25:32.844Z,10.70
2018-11-13T03:28:01.998Z,10.70
2018-11-13T03:30:30.337Z,10.70
2018-11-13T03:32:58.669Z,10.60
2018-11-13T03:35:27.011Z,10.70
2018-11-13T03:37:55.345Z,10.70
2018-11-13T03:40:23.707Z,10.70
2018-11-13T03:42:52.096Z,10.70
2018-11-13T03:45:20.743Z,10.70
2018-11-13T03:47:49.220Z,10.70
2018-11-13T03:50:19.735Z,10.80
2018-11-13T03:52:48.241Z,10.70
2018-11-13T03:55:17.134Z,10.70
2018-11-13T03:57:46.156Z,10.70
2018-11-13T04:00:15.765Z,10.70
2018-11-13T04:02:44.111Z,10.70
2018-11-13T04:05:13.527Z,10.70
2018-11-13T04:07:43.147Z,10.70
2018-11-13T04:10:12.783Z,10.70
2018-11-13T04:12:41.449Z,10.70
2018-11-13T04:15:11.658Z,10.70
2018-11-13T04:17:40.262Z,10.70
2018-11-13T04:20:10.351Z,10.70
2018-11-13T04:22:38.727Z,10.70
2018-11-13T04:25:07.461Z,10.70
2018-11-13T04:27:35.854Z,10.70
2018-11-13T04:30:04.398Z,10.70
2018-11-13T04:32:32.755Z,10.70
2018-11-13T04:35:01.071Z,10.70
2018-11-13T04:37:29.513Z,10.70
2018-11-13T04:39:57.904Z,10.70
2018-11-13T04:42:26.332Z,10.70
2018-11-13T04:44:54.722Z,10.70
2018-11-13T04:47:23.052Z,10.70
2018-11-13T04:49:51.374Z,10.70
2018-11-13T04:52:19.778Z,10.70
2018-11-13T04:54:48.109Z,10.70
2018-11-13T04:57:16.426Z,10.70
2018-11-13T04:59:44.778Z,10.70
2018-11-13T05:02:13.102Z,10.70
2018-11-13T05:04:41.446Z,10.70
2018-11-13T05:07:09.771Z,10.70
2018-11-13T05:09:38.119Z,10.70
2018-11-13T05:12:06.454Z,10.70
2018-11-13T05:14:34.794Z,10.70
2018-11-13T05:17:03.227Z,10.70
2018-11-13T05:19:31.576Z,10.70
2018-11-13T05:21:59.908Z,10.70
2018-11-13T05:24:28.288Z,10.70
2018-11-13T05:26:56.610Z,10.70
2018-11-13T05:29:24.957Z,10.70
2018-11-13T05:31:53.408Z,10.70
2018-11-13T05:34:22.158Z,10.70
2018-11-13T05:36:50.697Z,10.70
2018-11-13T05:39:20.197Z,10.70
2018-11-13T05:41:48.691Z,10.70
2018-11-13T05:44:17.167Z,10.70
2018-11-13T05:46:46.101Z,10.70
2018-11-13T05:49:14.459Z,10.60
2018-11-13T05:51:42.870Z,10.60
2018-11-13T05:54:11.259Z,10.60
2018-11-13T05:56:39.623Z,10.60
2018-11-13T05:59:07.972Z,10.60
2018-11-13T06:01:36.665Z,10.60
2018-11-13T06:04:06.468Z,10.60
2018-11-13T06:06:35.219Z,10.60
2018-11-13T06:09:03.618Z,10.60
2018-11-13T06:11:31.947Z,10.60
2018-11-13T06:14:00.298Z,10.60
2018-11-13T06:16:28.647Z,10.60
2018-11-13T06:18:57.019Z,10.70
2018-11-13T06:21:25.363Z,10.80
2018-11-13T06:23:53.694Z,10.80
2018-11-13T06:26:22.047Z,10.80
2018-11-13T06:29:04.183Z,10.80
2018-11-13T06:31:32.598Z,10.80
2018-11-13T06:34:00.974Z,10.80
2018-11-13T06:36:29.327Z,10.80
2018-11-13T06:38:57.970Z,10.80
2018-11-13T06:41:26.333Z,10.80
2018-11-13T06:43:54.987Z,10.80
2018-11-13T06:46:23.431Z,10.80
2018-11-13T06:48:51.839Z,10.80
2018-11-13T06:51:20.170Z,10.80
2018-11-13T06:53:59.801Z,10.80
2018-11-13T06:56:28.178Z,10.80
2018-11-13T06:58:56.529Z,10.80
2018-11-13T07:01:24.962Z,10.70
2018-11-13T07:03:53.287Z,10.70
2018-11-13T07:06:21.643Z,10.70
2018-11-13T07:08:49.986Z,10.70
2018-11-13T07:11:18.459Z,10.70
2018-11-13T07:13:46.762Z,10.70
2018-11-13T07:16:15.103Z,10.70
2018-11-13T07:18:43.490Z,10.70
2018-11-13T07:21:11.836Z,10.70
2018-11-13T07:23:40.165Z,10.80
2018-11-13T07:26:08.528Z,10.80
2018-11-13T07:28:36.855Z,10.80
2018-11-13T07:31:05.253Z,10.80
2018-11-13T07:33:33.648Z,10.80
2018-11-13T07:36:02.039Z,10.80
2018-11-13T07:38:30.377Z,10.80
2018-11-13T07:40:59.001Z,10.80
2018-11-13T07:43:27.320Z,10.80
2018-11-13T07:45:55.667Z,10.80
2018-11-13T07:48:23.992Z,10.80
2018-11-13T07:50:52.364Z,10.80
2018-11-13T07:53:20.704Z,10.80
2018-11-13T07:55:49.494Z,10.80
2018-11-13T07:58:17.823Z,10.80
2018-11-13T08:00:46.168Z,10.80
2018-11-13T08:03:28.277Z,10.70
2018-11-13T08:05:56.647Z,10.70
2018-11-13T08:08:24.986Z,10.70
2018-11-13T08:10:53.364Z,10.70
2018-11-13T08:13:21.787Z,10.70
2018-11-13T08:15:50.064Z,10.70
2018-11-13T08:18:18.422Z,10.70
2018-11-13T08:20:46.759Z,10.70
2018-11-13T08:23:15.187Z,10.70
2018-11-13T08:25:43.560Z,10.80
2018-11-13T08:28:11.925Z,10.80
2018-11-13T08:30:40.331Z,10.80
2018-11-13T08:33:08.716Z,10.90
2018-11-13T08:35:37.135Z,10.90
2018-11-13T08:38:05.543Z,11.00
2018-11-13T08:40:33.895Z,11.00
2018-11-13T08:43:02.257Z,11.10
2018-11-13T08:45:30.616Z,11.10
2018-11-13T08:47:58.958Z,11.20
2018-11-13T08:50:27.365Z,11.20
2018-11-13T08:52:55.926Z,11.30
2018-11-13T08:55:24.272Z,11.30
2018-11-13T08:57:52.608Z,11.40
2018-11-13T09:00:20.944Z,11.40
2018-11-13T09:02:49.586Z,11.40
2018-11-13T09:05:18.210Z,11.50
2018-11-13T09:07:46.572Z,11.50
2018-11-13T09:10:16.046Z,11.50
2018-11-13T09:12:44.753Z,11.60
2018-11-13T09:15:14.800Z,11.60
2018-11-13T09:17:43.231Z,11.70
2018-11-13T09:20:14.893Z,11.70
2018-11-13T09:22:43.330Z,11.70
2018-11-13T09:25:16.256Z,11.70
2018-11-13T09:27:44.639Z,11.80
2018-11-13T09:30:14.986Z,11.80
2018-11-13T09:32:43.772Z,11.90
2018-11-13T09:35:13.364Z,11.90
2018-11-13T09:37:42.144Z,11.90
2018-11-13T09:40:13.409Z,11.90
2018-11-13T09:42:42.510Z,12.00
2018-11-13T09:45:11.716Z,12.10
2018-11-13T09:47:40.512Z,12.10
2018-11-13T09:50:10.725Z,12.20
2018-11-13T09:52:39.274Z,12.20
2018-11-13T09:55:08.923Z,12.20
2018-11-13T09:57:37.295Z,12.20
2018-11-13T10:00:09.190Z,12.20
2018-11-13T10:02:37.965Z,12.20
2018-11-13T10:05:07.125Z,12.20
2018-11-13T10:07:34.712Z,12.20
2018-11-13T10:10:03.128Z,12.20
2018-11-13T10:12:31.436Z,12.20
2018-11-13T10:14:59.795Z,12.20
2018-11-13T10:17:28.223Z,12.20
2018-11-13T10:19:56.539Z,12.20
2018-11-13T10:22:24.863Z,12.10
2018-11-13T10:24:53.215Z,12.10
2018-11-13T10:27:21.565Z,12.10
2018-11-13T10:29:49.970Z,12.10
2018-11-13T10:32:18.440Z,12.10
2018-11-13T10:34:46.796Z,12.00
2018-11-13T10:37:15.136Z,12.00
2018-11-13T10:39:43.530Z,12.00
2018-11-13T10:42:11.864Z,12.00
2018-11-13T10:44:40.222Z,12.00
2018-11-13T10:47:08.569Z,12.00
2018-11-13T10:49:36.929Z,12.00
2018-11-13T10:52:05.561Z,12.00
2018-11-13T10:54:33.975Z,12.00
2018-11-13T10:57:02.293Z,12.00
2018-11-13T10:59:30.656Z,12.10
2018-11-13T11:02:06.275Z,12.10
2018-11-13T11:04:40.155Z,12.20
2018-11-13T11:07:08.546Z,12.20
2018-11-13T11:09:37.016Z,12.30
2018-11-13T11:12:05.971Z,12.30
2018-11-13T11:14:34.346Z,12.30
2018-11-13T11:17:02.939Z,12.30
2018-11-13T11:19:31.903Z,12.30
2018-11-13T11:22:00.244Z,12.20
2018-11-13T11:24:28.646Z,12.20
2018-11-13T11:26:57.015Z,12.20
2018-11-13T11:29:25.379Z,12.20
2018-11-13T11:31:53.772Z,12.20
2018-11-13T11:34:22.131Z,12.30
2018-11-13T11:36:50.460Z,12.30
2018-11-13T11:39:18.885Z,12.30
2018-11-13T11:41:47.223Z,12.30
2018-11-13T11:44:15.851Z,12.30
2018-11-13T11:46:44.136Z,12.20
2018-11-13T11:49:12.491Z,12.20
2018-11-13T11:51:40.831Z,12.20
2018-11-13T11:54:09.156Z,12.20
2018-11-13T11:56:37.511Z,12.20
2018-11-13T11:59:05.863Z,12.20
2018-11-13T12:01:34.204Z,12.20
2018-11-13T12:04:02.535Z,12.30
2018-11-13T12:06:30.885Z,12.40
2018-11-13T12:08:59.214Z,12.40
2018-11-13T12:11:27.550Z,12.50
2018-11-13T12:13:55.903Z,12.50
2018-11-13T12:18:57.864Z,12.40
2018-11-13T12:21:26.218Z,12.40
2018-11-13T12:23:54.547Z,12.40
2018-11-13T12:26:22.878Z,12.30
2018-11-13T12:28:51.684Z,12.20
2018-11-13T12:31:20.080Z,12.20
2018-11-13T12:33:48.433Z,12.20
2018-11-13T12:36:16.774Z,12.20
2018-11-13T12:38:45.122Z,12.20
2018-11-13T12:41:13.499Z,12.20
2018-11-13T12:43:41.836Z,12.20
2018-11-13T12:46:10.203Z,12.20
2018-11-13T12:48:38.636Z,12.20
2018-11-13T12:51:07.899Z,12.20
2018-11-13T12:53:37.011Z,12.20
2018-11-13T12:56:05.419Z,12.20
2018-11-13T12:58:33.756Z,12.20
2018-11-13T13:01:02.386Z,12.20
2018-11-13T13:03:30.722Z,12.10
2018-11-13T13:05:59.091Z,12.10
2018-11-13T13:08:27.484Z,12.10
2018-11-13T13:10:55.868Z,12.10
2018-11-13T13:13:24.206Z,12.20
2018-11-13T13:15:52.623Z,12.10
2018-11-13T13:18:21.011Z,12.20
2018-11-13T13:20:49.348Z,12.20
2018-11-13T13:23:17.752Z,12.20
2018-11-13T13:25:46.111Z,12.20
2018-11-13T13:28:14.471Z,12.20
2018-11-13T13:30:42.874Z,12.30
2018-11-13T13:33:11.306Z,12.30
2018-11-13T13:35:42.868Z,12.30
2018-11-13T13:38:11.655Z,12.30
2018-11-13T13:40:40.973Z,12.30
2018-11-13T13:43:10.268Z,12.30
2018-11-13T13:45:39.336Z,12.40
2018-11-13T13:48:07.699Z,12.40
2018-11-13T13:50:36.451Z,12.30
2018-11-13T13:53:05.266Z,12.30
2018-11-13T13:55:33.626Z,12.30
2018-11-13T13:58:02.137Z,12.30
2018-11-13T14:00:30.809Z,12.20
2018-11-13T14:02:59.344Z,12.20
2018-11-13T14:05:27.664Z,12.20
2018-11-13T14:07:56.024Z,12.10
2018-11-13T14:10:24.354Z,12.00
2018-11-13T14:12:52.716Z,12.00
2018-11-13T14:15:21.104Z,12.00
2018-11-13T14:17:49.507Z,12.00
2018-11-13T14:20:19.105Z,11.90
2018-11-13T14:22:48.149Z,11.90
2018-11-13T14:25:16.696Z,11.90
2018-11-13T14:27:45.572Z,11.90
2018-11-13T14:30:19.269Z,11.90
2018-11-13T14:32:48.376Z,11.80
2018-11-13T14:35:16.992Z,11.80
2018-11-13T14:37:45.363Z,11.80
2018-11-13T14:40:19.551Z,11.70
2018-11-13T14:42:48.275Z,11.70
2018-11-13T14:45:17.436Z,11.70
2018-11-13T14:47:46.559Z,11.70
2018-11-13T14:50:16.453Z,11.70
2018-11-13T14:52:45.254Z,11.70
2018-11-13T14:55:17.336Z,11.70
2018-11-13T14:57:46.028Z,11.70
2018-11-13T15:00:15.919Z,11.60
2018-11-13T15:02:45.546Z,11.60
2018-11-13T15:05:16.898Z,11.60
2018-11-13T15:07:46.335Z,11.60
2018-11-13T15:10:18.201Z,11.50
2018-11-13T15:12:46.574Z,11.50
2018-11-13T15:15:14.982Z,11.50
2018-11-13T15:17:44.121Z,11.50
2018-11-13T15:20:14.929Z,11.40
2018-11-13T15:22:44.043Z,11.40
2018-11-13T15:25:14.465Z,11.30
2018-11-13T15:27:43.667Z,11.30
2018-11-13T15:30:14.795Z,11.30
2018-11-13T15:32:43.799Z,11.30
2018-11-13T15:35:12.892Z,11.20
2018-11-13T15:37:41.803Z,11.20
2018-11-13T15:40:12.400Z,11.20
2018-11-13T15:42:41.520Z,11.20
2018-11-13T15:45:10.575Z,11.10
2018-11-13T15:47:39.816Z,11.10
2018-11-13T15:50:10.634Z,11.10
2018-11-13T15:52:38.988Z,11.10
2018-11-13T15:55:08.213Z,11.00
2018-11-13T15:57:37.058Z,11.00
2018-11-13T16:00:16.655Z,11.00
2018-11-13T16:02:45.462Z,10.90
2018-11-13T16:05:20.987Z,10.90
2018-11-13T16:07:49.695Z,10.90
2018-11-13T16:10:18.054Z,10.90
2018-11-13T16:12:47.071Z,10.80
2018-11-13T16:15:15.734Z,10.80
2018-11-13T16:17:44.127Z,10.80
2018-11-13T16:20:12.524Z,10.80
2018-11-13T16:22:40.839Z,10.80
2018-11-13T16:25:09.422Z,10.70
2018-11-13T16:27:37.830Z,10.70
2018-11-13T16:30:08.797Z,10.70
2018-11-13T16:32:37.121Z,10.70
2018-11-13T16:35:07.332Z,10.70
2018-11-13T16:37:35.675Z,10.70
2018-11-13T16:40:04.119Z,10.70
2018-11-13T16:42:32.439Z,10.70
2018-11-13T16:45:00.799Z,10.80
2018-11-13T16:47:29.119Z,10.80
2018-11-13T16:49:57.460Z,10.70
2018-11-13T16:52:25.906Z,10.80
2018-11-13T16:54:54.239Z,10.70
2018-11-13T16:57:22.565Z,10.70
2018-11-13T16:59:50.893Z,10.70
2018-11-13T17:02:19.377Z,10.70
2018-11-13T17:04:47.628Z,10.70
2018-11-13T17:07:16.092Z,10.70
2018-11-13T17:09:44.325Z,10.70
2018-11-13T17:12:12.644Z,10.70
2018-11-13T17:14:40.971Z,10.70
2018-11-13T17:17:09.425Z,10.70
2018-11-13T17:19:37.802Z,10.70
2018-11-13T17:22:06.439Z,10.70
2018-11-13T17:24:34.754Z,10.60
2018-11-13T17:27:03.086Z,10.70
2018-11-13T17:29:31.420Z,10.60
2018-11-13T17:31:59.857Z,10.60
2018-11-13T17:34:28.102Z,10.60
2018-11-13T17:36:56.448Z,10.60
2018-11-13T17:39:24.796Z,10.60
2018-11-13T17:41:53.116Z,10.60
2018-11-13T17:44:21.587Z,10.60
2018-11-13T17:46:49.835Z,10.60
2018-11-13T17:49:18.169Z,10.60
2018-11-13T17:51:46.494Z,10.50
2018-11-13T17:54:14.964Z,10.50
2018-11-13T17:56:43.433Z,10.60
2018-11-13T17:59:12.464Z,10.50
2018-11-13T18:01:40.847Z,10.50
2018-11-13T18:04:09.239Z,10.50
2018-11-13T18:06:37.597Z,10.50
2018-11-13T18:09:09.646Z,10.50
2018-11-13T18:11:38.094Z,10.50
2018-11-13T18:14:06.976Z,10.40
2018-11-13T18:16:35.348Z,10.40
2018-11-13T18:19:03.662Z,10.40
2018-11-13T18:21:32.020Z,10.40
2018-11-13T18:24:00.407Z,10.40
2018-11-13T18:26:28.898Z,10.30
2018-11-13T18:28:57.680Z,10.30
2018-11-13T18:31:27.075Z,10.30
2018-11-13T18:33:55.727Z,10.30
2018-11-13T18:36:24.091Z,10.30
2018-11-13T18:38:55.859Z,10.30
2018-11-13T18:41:24.315Z,10.20
2018-11-13T18:43:55.633Z,10.20
2018-11-13T18:46:24.876Z,10.20
2018-11-13T18:48:53.308Z,10.20
2018-11-13T18:51:21.979Z,10.20
2018-11-13T18:53:53.477Z,10.20
2018-11-13T18:56:21.898Z,10.20
2018-11-13T18:58:54.338Z,10.20
2018-11-13T19:01:22.878Z,10.10
2018-11-13T19:03:53.429Z,10.10
2018-11-13T19:06:21.838Z,10.10
2018-11-13T19:08:50.143Z,10.10
2018-11-13T19:11:18.492Z,10.10
2018-11-13T19:13:46.795Z,10.00
2018-11-13T19:16:15.134Z,10.00
2018-11-13T19:18:43.431Z,10.00
2018-11-13T19:21:11.755Z,10.00
2018-11-13T19:23:40.088Z,10.00
2018-11-13T19:26:08.398Z,10.00
2018-11-13T19:28:36.716Z,10.00
2018-11-13T19:31:05.225Z,9.90
2018-11-13T19:33:33.546Z,9.90
2018-11-13T19:36:01.901Z,9.90
2018-11-13T19:38:32.396Z,9.90
2018-11-13T19:41:02.101Z,9.90
2018-11-13T19:43:31.779Z,9.90
2018-11-13T19:46:00.192Z,9.90
2018-11-13T19:48:28.483Z,9.80
2018-11-13T19:50:56.914Z,9.80
2018-11-13T19:53:25.268Z,9.80
2018-11-13T19:55:53.706Z,9.80
2018-11-13T19:58:22.830Z,9.80
2018-11-13T20:00:51.150Z,9.70
2018-11-13T20:03:19.454Z,9.70
2018-11-13T20:05:47.961Z,9.70
2018-11-13T20:08:16.302Z,9.70
2018-11-13T20:10:44.587Z,9.70
2018-11-13T20:13:13.677Z,9.70
2018-11-13T20:15:42.513Z,9.70
2018-11-13T20:18:11.215Z,9.70
2018-11-13T20:20:39.578Z,9.70
2018-11-13T20:23:09.966Z,9.60
2018-11-13T20:25:40.715Z,9.60
2018-11-13T20:28:10.457Z,9.60
2018-11-13T20:30:40.495Z,9.60
2018-11-13T20:33:10.160Z,9.60
2018-11-13T20:35:39.812Z,9.60
2018-11-13T20:38:09.562Z,9.60
2018-11-13T20:40:38.322Z,9.60
2018-11-13T20:43:08.777Z,9.60
2018-11-13T20:45:37.091Z,9.50
2018-11-13T20:48:05.788Z,9.50
2018-11-13T20:50:34.576Z,9.50
2018-11-13T20:53:02.946Z,9.50
2018-11-13T20:55:32.657Z,9.50
2018-11-13T20:58:02.505Z,9.50
2018-11-13T21:00:34.753Z,9.50
2018-11-13T21:03:03.170Z,9.50
2018-11-13T21:05:31.463Z,9.40
2018-11-13T21:07:59.798Z,9.40
2018-11-13T21:10:35.877Z,9.40
2018-11-13T21:13:04.523Z,9.40
2018-11-13T21:15:32.858Z,9.40
2018-11-13T21:18:01.191Z,9.40
2018-11-13T21:20:29.478Z,9.40
2018-11-13T21:22:57.799Z,9.40
2018-11-13T21:25:26.878Z,9.40
2018-11-13T21:27:56.523Z,9.40
2018-11-13T21:30:24.933Z,9.40
2018-11-13T21:32:53.671Z,9.40
2018-11-13T21:35:22.087Z,9.40
2018-11-13T21:37:51.653Z,9.30
2018-11-13T21:40:22.189Z,9.40
2018-11-13T21:42:51.326Z,9.40
2018-11-13T21:45:20.854Z,9.40
2018-11-13T21:47:49.160Z,9.40
2018-11-13T21:50:19.825Z,9.30
2018-11-13T21:52:48.131Z,9.30
2018-11-13T21:55:17.909Z,9.30
2018-11-13T21:57:46.462Z,9.30
2018-11-13T22:00:16.723Z,9.30
2018-11-13T22:02:48.301Z,9.30
2018-11-13T22:05:16.624Z,9.20
2018-11-13T22:07:44.983Z,9.20
2018-11-13T22:10:13.328Z,9.20
2018-11-13T22:12:41.646Z,9.20
2018-11-13T22:15:12.608Z,9.20
2018-11-13T22:17:41.033Z,9.20
2018-11-13T22:20:11.017Z,9.20
2018-11-13T22:22:39.358Z,9.20
2018-11-13T22:25:13.550Z,9.20
2018-11-13T22:27:42.290Z,9.20
2018-11-13T22:30:12.858Z,9.20
2018-11-13T22:32:41.143Z,9.20
2018-11-13T22:35:11.022Z,9.20
2018-11-13T22:37:39.406Z,9.20
2018-11-13T22:40:11.995Z,9.10
2018-11-13T22:42:40.301Z,9.10
2018-11-13T22:45:11.235Z,9.10
2018-11-13T22:47:40.513Z,9.10
2018-11-13T22:50:12.549Z,9.10
2018-11-13T22:52:41.624Z,9.10
2018-11-13T22:55:11.205Z,9.10
2018-11-13T22:57:40.052Z,9.10
2018-11-13T23:00:13.559Z,9.10
2018-11-13T23:02:43.640Z,9.10
2018-11-13T23:05:12.456Z,9.10
2018-11-13T23:07:41.334Z,9.00
2018-11-13T23:10:11.607Z,9.00
2018-11-13T23:12:41.063Z,9.00
2018-11-13T23:15:12.084Z,9.00
2018-11-13T23:17:42.128Z,9.00
2018-11-13T23:20:12.537Z,9.00
2018-11-13T23:22:41.391Z,8.90
2018-11-13T23:25:11.783Z,8.90
2018-11-13T23:27:40.629Z,8.90
2018-11-13T23:30:11.683Z,8.90
2018-11-13T23:32:41.262Z,8.90
2018-11-13T23:35:11.681Z,8.90
2018-11-13T23:37:40.837Z,8.90
2018-11-13T23:40:11.786Z,8.80
2018-11-13T23:42:41.627Z,8.80
2018-11-13T23:45:10.974Z,8.80
2018-11-13T23:47:39.566Z,8.80
2018-11-13T23:50:08.475Z,8.80
2018-11-13T23:52:37.227Z,8.70
2018-11-13T23:55:06.927Z,8.70
2018-11-13T23:57:35.449Z,8.70
